Time;durP1;ratioP1;P1;durP2;ratioP2;P2;SDS_P1;SDS_P2;PMS_P1;PMS_P2;Temp;Humidity;BMP_temperature;BMP_pressure;BME280_temperature;BME280_humidity;BME280_pressure;Samples;Min_cycle;Max_cycle;Signal;HPM_P1;HPM_P2
2022/06/21 00:02:25;;;;;;;;;;;14.20;99.90;;;;;;5074511;28;19912;-78
2022/06/21 00:04:50;;;;;;;;;;;14.20;99.90;;;;;;5075789;28;19909;-77
2022/06/21 00:07:23;;;;;;;;;;;14.20;99.90;;;;;;5075023;28;19917;-76
2022/06/21 00:09:49;;;;;;;;;;;14.20;99.90;;;;;;5074932;28;19908;-76
2022/06/21 00:12:15;;;;;;;;;;;14.20;99.90;;;;;;5092335;28;19908;-77
2022/06/21 00:14:41;;;;;;;;;;;14.10;99.90;;;;;;5075167;28;19955;-77
2022/06/21 00:17:11;;;;;;;;;;;14.10;99.90;;;;;;5075618;28;19917;-77
2022/06/21 00:19:37;;;;;;;;;;;14.10;99.90;;;;;;5074745;28;19999;-77
2022/06/21 00:22:03;;;;;;;;;;;14.20;99.90;;;;;;5091162;28;19916;-76
2022/06/21 00:24:28;;;;;;;;;;;14.10;99.90;;;;;;5090008;28;19995;-77
2022/06/21 00:26:54;;;;;;;;;;;14.10;99.90;;;;;;5072473;28;19909;-77
2022/06/21 00:29:19;;;;;;;;;;;14.10;99.90;;;;;;5072966;28;19934;-76
2022/06/21 00:31:48;;;;;;;;;;;14.00;99.90;;;;;;5093773;28;20060;-76
2022/06/21 00:34:15;;;;;;;;;;;13.90;99.90;;;;;;5094356;28;19920;-76
2022/06/21 00:36:41;;;;;;;;;;;13.90;99.90;;;;;;5093689;28;19908;-77
2022/06/21 00:39:07;;;;;;;;;;;13.90;99.90;;;;;;5093844;28;19909;-76
2022/06/21 00:41:37;;;;;;;;;;;13.90;99.90;;;;;;5093875;28;19916;-76
2022/06/21 00:44:04;;;;;;;;;;;13.90;99.90;;;;;;5093377;28;19959;-76
2022/06/21 00:46:41;;;;;;;;;;;13.90;99.90;;;;;;5093084;28;19961;-76
2022/06/21 00:49:12;;;;;;;;;;;13.90;99.90;;;;;;5093172;28;19916;-76
2022/06/21 00:51:39;;;;;;;;;;;13.80;99.90;;;;;;5092692;28;19908;-76
2022/06/21 00:54:17;;;;;;;;;;;13.80;99.90;;;;;;5092727;28;19908;-76
2022/06/21 00:56:47;;;;;;;;;;;13.80;99.90;;;;;;5092833;28;19912;-76
2022/06/21 00:59:18;;;;;;;;;;;13.70;99.90;;;;;;5093021;28;19969;-76
2022/06/21 01:01:44;;;;;;;;;;;13.60;99.90;;;;;;5075585;28;20264;-76
2022/06/21 01:04:42;;;;;;;;;;;13.60;99.90;;;;;;5093303;28;20011;-77
2022/06/21 01:07:08;;;;;;;;;;;13.60;99.90;;;;;;5080718;28;19915;-76
2022/06/21 01:09:51;;;;;;;;;;;13.60;99.90;;;;;;5093018;28;19915;-76
2022/06/21 01:12:23;;;;;;;;;;;13.50;99.90;;;;;;5093196;28;19938;-76
2022/06/21 01:15:09;;;;;;;;;;;13.50;99.90;;;;;;5093201;28;19912;-76
2022/06/21 01:17:36;;;;;;;;;;;13.50;99.90;;;;;;5092702;28;20597;-77
2022/06/21 01:20:04;;;;;;;;;;;13.60;99.90;;;;;;5096900;28;19908;-76
2022/06/21 01:22:53;;;;;;;;;;;13.80;99.90;;;;;;5097912;28;19912;-76
2022/06/21 01:25:30;;;;;;;;;;;13.70;99.90;;;;;;5097892;28;19912;-76
2022/06/21 01:27:56;;;;;;;;;;;13.50;99.90;;;;;;5097825;28;19916;-76
2022/06/21 01:30:22;;;;;;;;;;;13.50;99.90;;;;;;5096630;28;19989;-76
2022/06/21 01:32:48;;;;;;;;;;;13.50;99.90;;;;;;5097705;28;19908;-76
2022/06/21 01:35:18;;;;;;;;;;;13.50;99.90;;;;;;5097439;28;19926;-76
2022/06/21 01:37:43;;;;;;;;;;;13.50;99.90;;;;;;5096224;28;20011;-76
2022/06/21 01:40:11;;;;;;;;;;;13.50;99.90;;;;;;5095935;28;19955;-76
2022/06/21 01:42:49;;;;;;;;;;;13.50;99.90;;;;;;5097170;28;19912;-76
2022/06/21 01:45:27;;;;;;;;;;;13.50;99.90;;;;;;5096313;28;19912;-76
2022/06/21 01:47:55;;;;;;;;;;;13.50;99.90;;;;;;5096457;28;19908;-76
2022/06/21 01:50:22;;;;;;;;;;;13.40;99.90;;;;;;5095963;28;19918;-77
2022/06/21 01:52:50;;;;;;;;;;;13.30;99.90;;;;;;5095923;28;19920;-76
2022/06/21 01:55:26;;;;;;;;;;;13.20;99.90;;;;;;5096826;28;20287;-77
2022/06/21 01:57:53;;;;;;;;;;;13.20;99.90;;;;;;5097649;28;19931;-76
2022/06/21 02:00:18;;;;;;;;;;;13.20;99.90;;;;;;5098597;28;19961;-77
2022/06/21 02:02:49;;;;;;;;;;;13.10;99.90;;;;;;5096491;28;19908;-77
2022/06/21 02:05:20;;;;;;;;;;;13.10;99.90;;;;;;5096607;28;20049;-76
2022/06/21 02:07:48;;;;;;;;;;;13.20;99.90;;;;;;5095025;28;19965;-76
2022/06/21 02:10:16;;;;;;;;;;;13.10;99.90;;;;;;5097049;28;19913;-77
2022/06/21 02:12:46;;;;;;;;;;;13.10;99.90;;;;;;5096881;28;19915;-76
2022/06/21 02:15:19;;;;;;;;;;;13.20;99.90;;;;;;5096033;28;20008;-76
2022/06/21 02:17:46;;;;;;;;;;;13.10;99.90;;;;;;5094866;28;19908;-76
2022/06/21 02:20:22;;;;;;;;;;;13.10;99.90;;;;;;5095594;28;19908;-76
2022/06/21 02:22:48;;;;;;;;;;;13.10;99.90;;;;;;5095163;28;19908;-77
2022/06/21 02:25:15;;;;;;;;;;;13.10;99.90;;;;;;5095708;28;20555;-78
2022/06/21 02:27:40;;;;;;;;;;;13.10;99.90;;;;;;5094826;28;20390;-76
2022/06/21 02:30:11;;;;;;;;;;;13.10;99.90;;;;;;5094433;28;19998;-76
2022/06/21 02:32:38;;;;;;;;;;;13.10;99.90;;;;;;5095446;28;19912;-76
2022/06/21 02:35:12;;;;;;;;;;;13.10;99.90;;;;;;5094641;28;20303;-76
2022/06/21 02:37:38;;;;;;;;;;;13.10;99.90;;;;;;5094769;28;19999;-76
2022/06/21 02:40:05;;;;;;;;;;;13.00;99.90;;;;;;5094877;28;19950;-76
2022/06/21 02:42:33;;;;;;;;;;;13.00;99.90;;;;;;5095924;28;19916;-76
2022/06/21 02:45:01;;;;;;;;;;;13.00;99.90;;;;;;5100079;28;20310;-76
2022/06/21 02:47:29;;;;;;;;;;;13.10;99.90;;;;;;5095624;28;19919;-76
2022/06/21 02:49:55;;;;;;;;;;;13.10;99.90;;;;;;5096749;28;20275;-76
2022/06/21 02:52:23;;;;;;;;;;;13.00;99.90;;;;;;5095597;28;19975;-76
2022/06/21 02:54:52;;;;;;;;;;;13.00;99.90;;;;;;5095317;28;20520;-76
2022/06/21 02:57:24;;;;;;;;;;;12.90;99.90;;;;;;5094056;28;19951;-77
2022/06/21 02:59:53;;;;;;;;;;;12.80;99.90;;;;;;5094746;28;20481;-76
2022/06/21 03:02:21;;;;;;;;;;;12.60;99.90;;;;;;5094839;28;19947;-77
2022/06/21 03:04:51;;;;;;;;;;;12.50;99.90;;;;;;5096124;28;20390;-76
2022/06/21 03:07:20;;;;;;;;;;;12.60;99.90;;;;;;5094903;28;20288;-77
2022/06/21 03:09:45;;;;;;;;;;;12.70;99.90;;;;;;5094412;28;19909;-76
2022/06/21 03:12:15;;;;;;;;;;;12.80;99.90;;;;;;5095528;28;19947;-76
2022/06/21 03:14:40;;;;;;;;;;;12.70;99.90;;;;;;5094480;28;19908;-76
2022/06/21 03:17:07;;;;;;;;;;;12.60;99.90;;;;;;5094703;28;19935;-76
2022/06/21 03:19:43;;;;;;;;;;;12.60;99.90;;;;;;5094630;28;20295;-76
2022/06/21 03:22:14;;;;;;;;;;;12.40;99.90;;;;;;5094056;28;19919;-76
2022/06/21 03:24:39;;;;;;;;;;;12.30;99.90;;;;;;5095178;28;20290;-76
2022/06/21 03:27:19;;;;;;;;;;;12.30;99.90;;;;;;5095165;28;19908;-76
2022/06/21 03:29:45;;;;;;;;;;;12.40;99.90;;;;;;5093499;28;19908;-76
2022/06/21 03:32:11;;;;;;;;;;;12.50;99.90;;;;;;5095779;28;19940;-76
2022/06/21 03:34:37;;;;;;;;;;;12.50;99.90;;;;;;5093467;28;19924;-76
2022/06/21 03:37:02;;;;;;;;;;;12.50;99.90;;;;;;5094315;28;19912;-76
2022/06/21 03:42:16;;;;;;;;;;;12.50;99.90;;;;;;5095461;28;19938;-76
2022/06/21 03:44:46;;;;;;;;;;;12.60;99.90;;;;;;5094165;28;19938;-76
2022/06/21 03:47:28;;;;;;;;;;;12.60;99.90;;;;;;5094499;28;20280;-76
2022/06/21 03:50:00;;;;;;;;;;;12.60;99.90;;;;;;5093848;28;19918;-76
2022/06/21 03:52:44;;;;;;;;;;;12.70;99.90;;;;;;5094740;28;19955;-76
2022/06/21 03:55:16;;;;;;;;;;;12.70;99.90;;;;;;5093560;28;19912;-76
2022/06/21 03:57:44;;;;;;;;;;;12.80;99.90;;;;;;5095575;28;19908;-77
2022/06/21 04:00:12;;;;;;;;;;;13.00;99.90;;;;;;5093855;28;19916;-76
2022/06/21 04:02:57;;;;;;;;;;;13.10;99.90;;;;;;5093468;28;20011;-77
2022/06/21 04:05:26;;;;;;;;;;;13.10;99.90;;;;;;5093617;28;19909;-76
2022/06/21 04:07:59;;;;;;;;;;;12.90;99.90;;;;;;5093656;28;19908;-76
2022/06/21 04:10:34;;;;;;;;;;;12.70;99.90;;;;;;5077437;28;20002;-76
2022/06/21 04:13:12;;;;;;;;;;;12.50;99.90;;;;;;5093876;28;20024;-76
2022/06/21 04:16:01;;;;;;;;;;;12.30;99.90;;;;;;5094233;28;19923;-76
2022/06/21 04:18:33;;;;;;;;;;;12.20;99.90;;;;;;5094980;28;19915;-76
2022/06/21 04:21:04;;;;;;;;;;;12.20;99.90;;;;;;5093509;28;19912;-76
2022/06/21 04:23:34;;;;;;;;;;;12.40;99.90;;;;;;5093535;28;19942;-77
2022/06/21 04:26:03;;;;;;;;;;;12.60;99.90;;;;;;5093370;28;19926;-76
2022/06/21 04:28:34;;;;;;;;;;;12.60;99.90;;;;;;5093249;28;19966;-76
2022/06/21 04:31:04;;;;;;;;;;;12.70;99.90;;;;;;5093764;28;19912;-76
2022/06/21 04:33:36;;;;;;;;;;;12.70;99.90;;;;;;5095183;28;19948;-76
2022/06/21 04:36:07;;;;;;;;;;;12.80;99.90;;;;;;5093805;28;20364;-76
2022/06/21 04:38:36;;;;;;;;;;;13.00;99.90;;;;;;5093643;28;19916;-76
2022/06/21 04:41:05;;;;;;;;;;;13.00;99.90;;;;;;5093353;28;19919;-76
2022/06/21 04:43:51;;;;;;;;;;;13.20;99.90;;;;;;5093397;28;19908;-76
2022/06/21 04:46:31;;;;;;;;;;;13.50;99.90;;;;;;5082835;28;19912;-76
2022/06/21 04:49:12;;;;;;;;;;;13.60;99.90;;;;;;5093411;28;19918;-76
2022/06/21 04:51:41;;;;;;;;;;;13.80;99.90;;;;;;5094003;28;19912;-76
2022/06/21 04:54:12;;;;;;;;;;;13.90;99.90;;;;;;5095693;28;19976;-76
2022/06/21 04:56:44;;;;;;;;;;;13.70;99.90;;;;;;5097612;28;19908;-76
2022/06/21 04:59:29;;;;;;;;;;;13.60;99.90;;;;;;5097792;28;19972;-76
2022/06/21 05:01:55;;;;;;;;;;;13.70;99.90;;;;;;5098075;28;19912;-76
2022/06/21 05:04:26;;;;;;;;;;;13.70;99.90;;;;;;5097367;28;19919;-76
2022/06/21 05:06:53;;;;;;;;;;;13.90;99.90;;;;;;5096865;28;20283;-76
2022/06/21 05:09:20;;;;;;;;;;;14.10;99.90;;;;;;5096600;28;19915;-76
2022/06/21 05:11:48;;;;;;;;;;;14.20;99.90;;;;;;5096726;28;19918;-77
2022/06/21 05:14:17;;;;;;;;;;;14.40;99.90;;;;;;5096026;28;19908;-76
2022/06/21 05:16:43;;;;;;;;;;;14.30;99.90;;;;;;5097081;28;19919;-76
2022/06/21 05:19:19;;;;;;;;;;;14.30;99.90;;;;;;5098038;28;19999;-76
2022/06/21 05:21:47;;;;;;;;;;;14.40;99.90;;;;;;5096678;28;19952;-76
2022/06/21 05:24:13;;;;;;;;;;;14.50;99.90;;;;;;5098063;28;19908;-76
2022/06/21 05:26:43;;;;;;;;;;;14.50;99.90;;;;;;5096261;28;20284;-76
2022/06/21 05:29:11;;;;;;;;;;;14.60;99.90;;;;;;5097023;28;19919;-76
2022/06/21 05:31:39;;;;;;;;;;;14.70;99.90;;;;;;5095916;28;19912;-76
2022/06/21 05:34:09;;;;;;;;;;;14.90;99.90;;;;;;5093868;28;20371;-76
2022/06/21 05:36:56;;;;;;;;;;;15.00;99.90;;;;;;5094126;28;19916;-76
2022/06/21 05:39:24;;;;;;;;;;;15.10;99.90;;;;;;5094539;28;19919;-77
2022/06/21 05:41:52;;;;;;;;;;;15.30;99.90;;;;;;5097685;28;20058;-76
2022/06/21 05:44:32;;;;;;;;;;;15.50;99.90;;;;;;5094044;28;20403;-76
2022/06/21 05:47:10;;;;;;;;;;;15.50;99.90;;;;;;5085208;28;20303;-76
2022/06/21 05:49:36;;;;;;;;;;;15.60;99.90;;;;;;5074315;28;19912;-76
2022/06/21 05:52:04;;;;;;;;;;;15.70;99.90;;;;;;5074637;28;19916;-76
2022/06/21 05:54:36;;;;;;;;;;;15.80;99.90;;;;;;5070594;28;20072;-76
2022/06/21 05:57:04;;;;;;;;;;;16.00;99.90;;;;;;5073260;28;19936;-76
2022/06/21 05:59:29;;;;;;;;;;;16.20;99.90;;;;;;5073552;28;19908;-76
2022/06/21 06:01:55;;;;;;;;;;;16.10;99.90;;;;;;5069544;28;20307;-76
2022/06/21 06:04:39;;;;;;;;;;;16.00;99.90;;;;;;5069510;28;19916;-76
2022/06/21 06:07:05;;;;;;;;;;;15.80;99.90;;;;;;5073132;28;20369;-76
2022/06/21 06:09:34;;;;;;;;;;;15.90;99.90;;;;;;5066572;28;19917;-76
2022/06/21 06:12:19;;;;;;;;;;;15.90;99.90;;;;;;5068864;28;19912;-76
2022/06/21 06:14:49;;;;;;;;;;;16.00;99.90;;;;;;5087171;28;19964;-77
2022/06/21 06:17:39;;;;;;;;;;;15.90;99.90;;;;;;5073388;28;19951;-78
2022/06/21 06:20:12;;;;;;;;;;;15.90;99.90;;;;;;5069896;28;20712;-78
2022/06/21 06:22:46;;;;;;;;;;;16.20;99.90;;;;;;5067914;28;19943;-76
2022/06/21 06:25:32;;;;;;;;;;;16.60;99.90;;;;;;5073836;28;19920;-77
2022/06/21 06:28:16;;;;;;;;;;;16.80;99.90;;;;;;5068823;28;19928;-77
2022/06/21 06:30:51;;;;;;;;;;;17.00;99.90;;;;;;5072230;28;19965;-79
2022/06/21 06:33:31;;;;;;;;;;;17.40;99.90;;;;;;5068407;28;20400;-76
2022/06/21 06:36:00;;;;;;;;;;;17.50;99.90;;;;;;5078250;28;19928;-76
2022/06/21 06:38:27;;;;;;;;;;;17.60;99.90;;;;;;5080573;28;19913;-76
2022/06/21 06:41:20;;;;;;;;;;;17.80;99.90;;;;;;5080178;28;19932;-76
2022/06/21 06:43:52;;;;;;;;;;;18.20;99.90;;;;;;5081241;28;19913;-76
2022/06/21 06:46:23;;;;;;;;;;;18.90;99.90;;;;;;5080951;28;19916;-76
2022/06/21 06:48:49;;;;;;;;;;;19.00;99.90;;;;;;5084617;28;19916;-76
2022/06/21 06:51:14;;;;;;;;;;;19.40;99.90;;;;;;5083411;28;19936;-76
2022/06/21 06:53:43;;;;;;;;;;;20.00;99.90;;;;;;5078081;28;19951;-74
2022/06/21 06:56:15;;;;;;;;;;;20.30;99.90;;;;;;5077262;28;19917;-74
2022/06/21 06:58:44;;;;;;;;;;;20.70;99.90;;;;;;5076842;28;19922;-77
2022/06/21 07:01:13;;;;;;;;;;;22.10;99.90;;;;;;5080453;28;19924;-75
2022/06/21 07:03:42;;;;;;;;;;;22.80;99.90;;;;;;5072661;28;20454;-75
2022/06/21 07:06:18;;;;;;;;;;;22.80;99.90;;;;;;5082726;28;19947;-75
2022/06/21 07:08:53;;;;;;;;;;;22.40;99.90;;;;;;5079684;28;20628;-75
2022/06/21 07:11:37;;;;;;;;;;;22.50;99.90;;;;;;5080306;28;21267;-75
2022/06/21 07:14:02;;;;;;;;;;;22.80;99.90;;;;;;5081153;28;19920;-77
2022/06/21 07:16:29;;;;;;;;;;;23.00;99.30;;;;;;5073258;28;19950;-75
2022/06/21 07:18:57;;;;;;;;;;;22.20;99.90;;;;;;5082567;28;19912;-74
2022/06/21 07:21:23;;;;;;;;;;;21.70;99.90;;;;;;5085259;28;19957;-75
2022/06/21 07:23:52;;;;;;;;;;;21.30;99.90;;;;;;5081921;28;19923;-75
2022/06/21 07:26:23;;;;;;;;;;;21.20;99.90;;;;;;5081020;28;19923;-75
2022/06/21 07:28:54;;;;;;;;;;;20.90;99.90;;;;;;5081416;28;19973;-75
2022/06/21 07:31:25;;;;;;;;;;;20.70;99.90;;;;;;5077434;28;19969;-75
2022/06/21 07:33:51;;;;;;;;;;;20.60;99.90;;;;;;5077882;28;19980;-75
2022/06/21 07:36:26;;;;;;;;;;;20.00;99.90;;;;;;5083523;28;19915;-76
2022/06/21 07:38:56;;;;;;;;;;;19.80;99.90;;;;;;5076166;28;20292;-75
2022/06/21 07:41:25;;;;;;;;;;;19.80;99.90;;;;;;5084685;28;19986;-76
2022/06/21 07:43:54;;;;;;;;;;;19.60;99.90;;;;;;5069107;28;19920;-75
2022/06/21 07:46:34;;;;;;;;;;;19.30;99.90;;;;;;5074204;28;19981;-75
2022/06/21 07:49:05;;;;;;;;;;;19.50;99.90;;;;;;5081885;28;19919;-75
2022/06/21 07:51:35;;;;;;;;;;;19.50;99.90;;;;;;5072566;28;20130;-76
2022/06/21 07:54:14;;;;;;;;;;;19.60;99.90;;;;;;5078344;28;19916;-75
2022/06/21 07:56:51;;;;;;;;;;;19.50;99.90;;;;;;5080141;28;19909;-75
2022/06/21 07:59:28;;;;;;;;;;;19.60;99.90;;;;;;5081654;28;21696;-75
2022/06/21 08:08:03;;;;;;;;;;;19.50;99.90;;;;;;5077950;28;19978;-75
2022/06/21 08:10:37;;;;;;;;;;;19.50;99.90;;;;;;5081845;28;19913;-75
2022/06/21 08:13:03;;;;;;;;;;;19.70;99.90;;;;;;5063578;28;19946;-77
2022/06/21 08:15:37;;;;;;;;;;;19.60;99.90;;;;;;5065953;28;19920;-75
2022/06/21 08:18:04;;;;;;;;;;;19.50;99.90;;;;;;5055203;28;19946;-77
2022/06/21 08:20:36;;;;;;;;;;;19.90;99.90;;;;;;5092756;28;19920;-77
2022/06/21 08:23:04;;;;;;;;;;;20.10;99.90;;;;;;5071901;28;19955;-79
2022/06/21 08:25:34;;;;;;;;;;;20.30;99.90;;;;;;5084253;28;19920;-79
2022/06/21 08:28:12;;;;;;;;;;;20.60;99.90;;;;;;5070880;28;19912;-76
2022/06/21 08:30:58;;;;;;;;;;;20.70;99.90;;;;;;5075349;28;19912;-77
2022/06/21 08:33:27;;;;;;;;;;;20.30;99.90;;;;;;5075667;28;19944;-76
2022/06/21 08:36:01;;;;;;;;;;;20.20;99.90;;;;;;5076679;28;19913;-76
2022/06/21 08:38:36;;;;;;;;;;;20.00;99.90;;;;;;5073185;28;19981;-76
2022/06/21 08:41:51;;;;;;;;;;;19.80;99.90;;;;;;5073381;28;20024;-76
2022/06/21 08:44:01;;;;;;;;;;;19.90;99.90;;;;;;5073667;28;19920;-76
2022/06/21 08:46:42;;;;;;;;;;;19.90;99.90;;;;;;5077585;28;20081;-76
2022/06/21 08:49:15;;;;;;;;;;;19.80;99.90;;;;;;5086214;28;19921;-76
2022/06/21 08:51:50;;;;;;;;;;;19.90;99.90;;;;;;5072484;28;20391;-76
2022/06/21 08:54:26;;;;;;;;;;;20.00;99.90;;;;;;5073898;28;19979;-76
2022/06/21 08:57:11;;;;;;;;;;;19.90;99.90;;;;;;5072013;28;20423;-76
2022/06/21 08:59:57;;;;;;;;;;;20.00;99.90;;;;;;5073306;28;19946;-76
2022/06/21 09:02:42;;;;;;;;;;;19.80;99.90;;;;;;5087286;28;19939;-76
2022/06/21 09:05:33;;;;;;;;;;;19.90;99.90;;;;;;5087589;28;20007;-76
2022/06/21 09:08:05;;;;;;;;;;;19.90;99.90;;;;;;5089487;28;19999;-76
2022/06/21 09:10:51;;;;;;;;;;;19.80;99.90;;;;;;5085434;28;20308;-76
2022/06/21 09:13:19;;;;;;;;;;;19.80;99.90;;;;;;5077995;28;19966;-76
2022/06/21 09:16:03;;;;;;;;;;;19.60;99.90;;;;;;5079591;28;19916;-77
2022/06/21 09:18:56;;;;;;;;;;;19.60;99.90;;;;;;5078396;28;19920;-73
2022/06/21 09:21:41;;;;;;;;;;;19.60;99.90;;;;;;5079090;28;20420;-75
2022/06/21 09:24:09;;;;;;;;;;;19.40;99.90;;;;;;5083514;28;19916;-75
2022/06/21 09:26:41;;;;;;;;;;;19.30;99.90;;;;;;5086506;28;19916;-76
2022/06/21 09:29:23;;;;;;;;;;;19.50;99.90;;;;;;5084534;28;19920;-76
2022/06/21 09:31:48;;;;;;;;;;;20.00;99.90;;;;;;5082291;28;19920;-75
2022/06/21 09:34:20;;;;;;;;;;;20.30;99.90;;;;;;5096543;28;19920;-76
2022/06/21 09:37:11;;;;;;;;;;;20.70;99.90;;;;;;5079453;28;19982;-76
2022/06/21 09:39:42;;;;;;;;;;;21.00;99.90;;;;;;5082694;28;19948;-76
2022/06/21 09:42:17;;;;;;;;;;;21.10;99.90;;;;;;5095147;28;20007;-76
2022/06/21 09:44:47;;;;;;;;;;;21.40;99.90;;;;;;5081228;28;19928;-76
2022/06/21 09:47:22;;;;;;;;;;;21.70;99.90;;;;;;5080668;28;20051;-77
2022/06/21 09:49:56;;;;;;;;;;;21.70;99.90;;;;;;5082004;28;19962;-76
2022/06/21 09:52:30;;;;;;;;;;;21.90;99.90;;;;;;5086649;28;19916;-76
2022/06/21 09:55:03;;;;;;;;;;;22.10;99.90;;;;;;5083649;28;19927;-77
2022/06/21 09:57:34;;;;;;;;;;;22.70;99.30;;;;;;5080954;28;19923;-76
2022/06/21 10:00:19;;;;;;;;;;;23.20;97.50;;;;;;5089602;28;19921;-77
2022/06/21 11:02:44;;;;;;;20.13;5.97;;;20.80;99.90;;;;;;5062420;28;20036;-54
2022/06/21 11:05:37;;;;;;;15.43;5.95;;;20.70;99.90;;;;;;5079282;28;20035;-54
2022/06/21 11:08:39;;;;;;;10.50;5.65;;;20.70;99.90;;;;;;5068696;28;20024;-54
2022/06/21 11:11:20;;;;;;;11.45;5.38;;;21.10;99.90;;;;;;5069444;28;20143;-54
2022/06/21 11:13:52;;;;;;;11.80;5.20;;;21.20;99.60;;;;;;5062960;28;20028;-54
2022/06/21 11:16:55;;;;;;;12.07;5.23;;;21.00;99.50;;;;;;5070195;28;20051;-55
2022/06/21 11:19:39;;;;;;;10.50;5.25;;;21.10;99.60;;;;;;5072721;28;20561;-54
2022/06/21 11:22:35;;;;;;;9.82;5.47;;;21.50;99.70;;;;;;5069673;28;20384;-54
2022/06/21 11:25:06;;;;;;;9.18;4.50;;;21.60;99.20;;;;;;5074024;28;20153;-54
2022/06/21 11:27:35;;;;;;;12.85;5.15;;;21.50;99.30;;;;;;5072273;28;20059;-54
2022/06/21 11:30:13;;;;;;;10.38;5.15;;;21.10;99.00;;;;;;5072319;28;20044;-54
2022/06/21 11:33:03;;;;;;;9.27;4.40;;;21.00;98.30;;;;;;5079485;28;20111;-54
2022/06/21 11:35:44;;;;;;;15.43;7.07;;;21.20;98.20;;;;;;5075213;28;20034;-54
2022/06/21 11:38:33;;;;;;;10.25;4.00;;;21.40;97.20;;;;;;5067838;28;20032;-53
2022/06/21 11:42:08;;;;;;;21.48;6.32;;;21.60;97.00;;;;;;5071370;28;20024;-54
2022/06/21 11:44:55;;;;;;;9.68;4.57;;;21.40;97.20;;;;;;5013925;28;20122;-54
2022/06/21 11:47:38;;;;;;;10.43;5.15;;;21.30;97.80;;;;;;5002042;28;20128;-54
2022/06/21 11:50:24;;;;;;;12.65;4.97;;;21.30;97.80;;;;;;5058928;28;20066;-54
2022/06/21 11:53:15;;;;;;;11.35;5.13;;;21.50;97.90;;;;;;5079710;28;20032;-54
2022/06/21 11:55:45;;;;;;;10.52;4.82;;;21.50;98.30;;;;;;5070426;28;20041;-54
2022/06/21 11:58:22;;;;;;;10.73;4.95;;;21.50;98.00;;;;;;5065546;28;20028;-54
2022/06/21 12:01:01;;;;;;;10.98;5.13;;;21.50;97.80;;;;;;5070909;28;20111;-56
2022/06/21 12:03:53;;;;;;;12.18;5.63;;;21.60;97.20;;;;;;5065090;28;20053;-54
2022/06/21 12:06:33;;;;;;;23.73;5.50;;;21.60;97.20;;;;;;5059028;28;20050;-54
2022/06/21 12:09:17;;;;;;;11.88;5.85;;;21.50;98.00;;;;;;5053819;28;20032;-55
2022/06/21 12:12:01;;;;;;;14.60;5.18;;;21.60;98.00;;;;;;5050559;28;20582;-52
2022/06/21 12:14:33;;;;;;;12.55;6.03;;;21.50;97.90;;;;;;5056028;28;20061;-54
2022/06/21 12:17:30;;;;;;;12.57;6.30;;;21.60;97.90;;;;;;5048171;28;20021;-54
2022/06/21 12:20:01;;;;;;;12.65;6.30;;;21.40;97.70;;;;;;5048888;28;20418;-53
2022/06/21 12:22:41;;;;;;;14.45;7.00;;;21.00;99.20;;;;;;5056261;28;20016;-54
2022/06/21 12:25:17;;;;;;;13.35;6.75;;;20.90;99.60;;;;;;5054934;28;20036;-53
2022/06/21 12:27:44;;;;;;;14.98;6.03;;;20.80;99.50;;;;;;5051726;28;20064;-53
2022/06/21 12:30:30;;;;;;;20.85;7.53;;;21.20;99.20;;;;;;5050202;28;20033;-54
2022/06/21 12:33:01;;;;;;;11.80;6.07;;;21.70;97.90;;;;;;5054933;28;20040;-54
2022/06/21 12:35:48;;;;;;;10.80;6.35;;;21.90;97.60;;;;;;5052193;28;20384;-54
2022/06/21 12:38:20;;;;;;;13.32;6.78;;;22.30;96.70;;;;;;5058185;28;20379;-55
2022/06/21 12:41:05;;;;;;;13.52;6.65;;;22.40;96.50;;;;;;5059508;28;20025;-54
2022/06/21 12:43:55;;;;;;;10.50;5.55;;;22.70;95.90;;;;;;5055102;28;20033;-54
2022/06/21 12:46:30;;;;;;;10.50;6.25;;;22.60;96.60;;;;;;5048768;28;20020;-55
2022/06/21 12:49:17;;;;;;;8.25;5.22;;;22.50;96.70;;;;;;5051993;28;20032;-54
2022/06/21 12:52:08;;;;;;;12.57;6.88;;;22.50;97.00;;;;;;5054212;28;20033;-54
2022/06/21 12:54:51;;;;;;;10.18;7.10;;;22.30;96.00;;;;;;5052228;28;20076;-54
2022/06/21 12:57:50;;;;;;;15.32;7.00;;;22.10;96.50;;;;;;5053189;28;20017;-53
2022/06/21 13:00:33;;;;;;;8.77;6.43;;;21.50;97.00;;;;;;5053465;28;20020;-54
2022/06/21 13:03:37;;;;;;;10.45;7.20;;;21.20;97.60;;;;;;5049164;28;20532;-54
2022/06/21 13:06:11;;;;;;;11.35;6.10;;;21.00;98.20;;;;;;5050198;28;20036;-55
2022/06/21 13:08:40;;;;;;;11.35;6.03;;;21.40;98.20;;;;;;5053134;28;20040;-55
2022/06/21 13:11:24;;;;;;;14.77;6.25;;;21.70;98.20;;;;;;5049222;28;20036;-54
2022/06/21 13:14:23;;;;;;;10.07;6.45;;;21.60;98.00;;;;;;5051872;28;20404;-55
2022/06/21 13:16:59;;;;;;;13.40;5.70;;;21.80;96.90;;;;;;5051675;28;20427;-55
2022/06/21 13:19:39;;;;;;;10.43;6.55;;;22.00;96.60;;;;;;5043235;28;20143;-54
2022/06/21 13:22:35;;;;;;;14.27;7.07;;;22.10;96.30;;;;;;5057731;28;20052;-54
2022/06/21 13:25:23;;;;;;;12.43;6.60;;;21.80;96.70;;;;;;5057612;28;20032;-54
2022/06/21 13:28:01;;;;;;;11.00;6.22;;;21.70;97.00;;;;;;5057251;28;20105;-54
2022/06/21 13:30:38;;;;;;;12.18;6.82;;;21.60;97.70;;;;;;5063561;28;20032;-54
2022/06/21 13:33:13;;;;;;;12.30;6.88;;;21.60;97.50;;;;;;5060802;28;20059;-53
2022/06/21 13:35:54;;;;;;;14.00;5.95;;;21.30;97.40;;;;;;5064565;28;20041;-53
2022/06/21 13:38:41;;;;;;;10.55;6.32;;;21.40;97.70;;;;;;5055449;28;20478;-53
2022/06/21 13:44:28;;;;;;;9.85;5.43;;;21.50;98.40;;;;;;5065942;28;20120;-54
2022/06/21 13:47:05;;;;;;;15.38;5.63;;;21.70;98.40;;;;;;5059156;28;20643;-54
2022/06/21 13:49:39;;;;;;;9.45;5.47;;;21.90;98.20;;;;;;5068665;28;20040;-54
2022/06/21 13:52:16;;;;;;;11.20;5.63;;;22.00;97.80;;;;;;5050992;28;20036;-55
2022/06/21 13:54:52;;;;;;;12.25;5.35;;;22.30;97.10;;;;;;5054521;28;20743;-52
2022/06/21 13:58:08;;;;;;;10.85;6.90;;;22.40;97.00;;;;;;5056339;28;20025;-54
2022/06/21 14:00:41;;;;;;;10.05;5.82;;;22.50;96.00;;;;;;5044185;28;20037;-55
2022/06/21 14:03:46;;;;;;;12.00;5.55;;;22.40;95.90;;;;;;5035764;28;20113;-58
2022/06/21 14:06:39;;;;;;;10.50;6.18;;;22.30;96.70;;;;;;5062063;28;20063;-55
2022/06/21 14:09:24;;;;;;;10.82;5.45;;;22.40;96.30;;;;;;5060380;28;20020;-56
2022/06/21 14:12:00;;;;;;;10.65;5.32;;;22.40;96.40;;;;;;5062962;28;20061;-55
2022/06/21 14:14:55;;;;;;;11.35;5.60;;;22.40;97.20;;;;;;5067725;28;20028;-54
2022/06/21 14:17:53;;;;;;;15.05;5.88;;;22.60;96.50;;;;;;5059583;28;20545;-54
2022/06/21 14:20:44;;;;;;;11.88;5.70;;;23.10;95.40;;;;;;5027036;28;20059;-54
2022/06/21 14:23:28;;;;;;;11.93;5.22;;;23.30;95.30;;;;;;5064264;28;20032;-54
2022/06/21 14:26:15;;;;;;;10.25;5.95;;;23.10;95.20;;;;;;5066976;28;20059;-54
2022/06/21 14:28:50;;;;;;;11.38;6.32;;;23.00;95.10;;;;;;5078636;28;20123;-54
2022/06/21 14:31:27;;;;;;;19.27;6.22;;;23.00;95.60;;;;;;5063161;28;20032;-54
2022/06/21 14:34:02;;;;;;;9.30;5.13;;;23.20;95.60;;;;;;5059934;28;20028;-54
2022/06/21 14:36:49;;;;;;;9.93;5.57;;;23.30;95.40;;;;;;5060338;28;20017;-55
2022/06/21 14:39:46;;;;;;;9.05;5.80;;;23.30;95.50;;;;;;5062221;28;20283;-54
2022/06/21 14:42:44;;;;;;;20.52;6.75;;;23.80;94.90;;;;;;5060658;28;20024;-54
2022/06/21 14:45:19;;;;;;;8.40;4.85;;;24.20;95.00;;;;;;5061313;28;20040;-54
2022/06/21 14:48:08;;;;;;;8.68;5.43;;;25.00;93.40;;;;;;5061285;28;20459;-54
2022/06/21 14:50:41;;;;;;;9.65;5.15;;;26.20;91.00;;;;;;5062065;28;20892;-55
2022/06/21 14:53:22;;;;;;;10.23;4.65;;;26.90;90.30;;;;;;5062050;28;20028;-55
2022/06/21 14:55:56;;;;;;;9.23;4.10;;;28.10;87.10;;;;;;5058462;28;20056;-56
2022/06/21 14:58:46;;;;;;;12.40;4.40;;;29.20;82.10;;;;;;5060539;28;20035;-56
2022/06/21 15:01:24;;;;;;;7.05;4.10;;;29.60;76.30;;;;;;5061417;28;20063;-55
2022/06/21 15:04:26;;;;;;;7.82;4.72;;;28.70;77.10;;;;;;5060396;28;20401;-55
2022/06/21 15:07:28;;;;;;;7.03;4.40;;;28.20;76.70;;;;;;5053715;28;20045;-55
2022/06/21 15:10:25;;;;;;;11.43;4.68;;;27.90;75.80;;;;;;5060079;28;20498;-55
2022/06/21 15:13:18;;;;;;;10.52;4.60;;;27.70;76.50;;;;;;5046701;28;20045;-56
2022/06/21 15:15:47;;;;;;;9.93;4.38;;;27.10;78.50;;;;;;5059465;28;20029;-55
2022/06/21 15:18:37;;;;;;;8.98;3.45;;;26.60;80.30;;;;;;5061757;28;20099;-55
2022/06/21 15:21:07;;;;;;;7.28;3.40;;;25.80;76.70;;;;;;5061283;28;20036;-56
2022/06/21 15:24:01;;;;;;;8.70;3.53;;;25.80;77.60;;;;;;5063868;28;20109;-54
2022/06/21 15:26:41;;;;;;;9.00;4.35;;;26.20;76.60;;;;;;5057634;28;20047;-55
2022/06/21 15:29:27;;;;;;;7.63;3.80;;;26.50;77.10;;;;;;5063785;28;20104;-55
2022/06/21 15:32:07;;;;;;;6.80;3.50;;;26.10;77.10;;;;;;5062835;28;20488;-55
2022/06/21 15:34:43;;;;;;;9.02;3.65;;;25.30;78.40;;;;;;5060842;28;20050;-54
2022/06/21 15:37:18;;;;;;;10.95;5.07;;;25.50;77.90;;;;;;5065430;28;20027;-54
2022/06/21 15:39:47;;;;;;;6.68;3.03;;;25.30;77.90;;;;;;5065225;28;20423;-54
2022/06/21 15:42:16;;;;;;;6.35;2.83;;;25.10;78.80;;;;;;5068594;28;20112;-54
2022/06/21 15:45:03;;;;;;;5.10;2.75;;;24.90;79.00;;;;;;5070131;28;20028;-55